Time;durP1;ratioP1;P1;durP2;ratioP2;P2;SDS_P1;SDS_P2;PMS_P1;PMS_P2;Temp;Humidity;BMP_temperature;BMP_pressure;BME280_temperature;BME280_humidity;BME280_pressure;Samples;Min_cycle;Max_cycle;Signal;HPM_P1;HPM_P2
2021/06/29 00:01:54;;;;;;;7.70;6.00;;;;;;;;;;4258855;33;20296;-55
2021/06/29 00:04:20;;;;;;;9.65;6.40;;;;;;;;;;4258992;33;20610;-55
2021/06/29 00:06:45;;;;;;;7.45;5.35;;;;;;;;;;4270285;33;20578;-56
2021/06/29 00:09:11;;;;;;;12.02;5.57;;;;;;;;;;4273220;33;20200;-56
2021/06/29 00:11:38;;;;;;;7.68;5.12;;;;;;;;;;4272849;33;20322;-56
2021/06/29 00:14:03;;;;;;;10.50;5.53;;;;;;;;;;4283721;33;20585;-56
2021/06/29 00:16:29;;;;;;;7.10;5.37;;;;;;;;;;4273091;33;20275;-56
2021/06/29 00:18:55;;;;;;;6.62;5.28;;;;;;;;;;4272924;33;20558;-56
2021/06/29 00:21:20;;;;;;;11.00;5.60;;;;;;;;;;4273087;33;20383;-57
2021/06/29 00:23:46;;;;;;;8.13;6.47;;;;;;;;;;4272890;33;20220;-56
2021/06/29 00:26:11;;;;;;;9.20;5.53;;;;;;;;;;4271586;33;20747;-56
2021/06/29 00:28:37;;;;;;;10.25;6.35;;;;;;;;;;4272598;33;20288;-56
2021/06/29 00:31:03;;;;;;;7.93;5.75;;;;;;;;;;4269289;33;20280;-56
2021/06/29 00:33:28;;;;;;;9.48;6.05;;;;;;;;;;4258685;33;20236;-55
2021/06/29 00:35:54;;;;;;;8.45;5.95;;;;;;;;;;4258773;33;20310;-55
2021/06/29 00:38:19;;;;;;;5.97;5.00;;;;;;;;;;4258916;33;20316;-56
2021/06/29 00:40:45;;;;;;;6.87;5.50;;;;;;;;;;4269198;33;20303;-55
2021/06/29 00:43:10;;;;;;;7.28;5.25;;;;;;;;;;4258699;33;20252;-55
2021/06/29 00:45:36;;;;;;;7.72;5.85;;;;;;;;;;4258542;33;20319;-55
2021/06/29 00:48:01;;;;;;;6.18;5.12;;;;;;;;;;4258578;33;20284;-56
2021/06/29 00:50:27;;;;;;;5.75;5.15;;;;;;;;;;4258582;33;20382;-56
2021/06/29 00:52:52;;;;;;;6.50;4.57;;;;;;;;;;4258452;33;20236;-55
2021/06/29 00:55:18;;;;;;;6.28;5.10;;;;;;;;;;4258770;33;20641;-57
2021/06/29 00:57:44;;;;;;;5.25;4.75;;;;;;;;;;4258488;33;20630;-55
2021/06/29 01:00:10;;;;;;;5.03;4.22;;;;;;;;;;4258526;33;20292;-56
2021/06/29 01:02:36;;;;;;;7.57;5.00;;;;;;;;;;4258560;33;20232;-55
2021/06/29 01:05:05;;;;;;;6.47;5.05;;;;;;;;;;4259604;33;20324;-55
2021/06/29 01:07:30;;;;;;;5.85;5.05;;;;;;;;;;4272269;33;20778;-56
2021/06/29 01:09:56;;;;;;;5.00;4.53;;;;;;;;;;4272622;33;20299;-56
2021/06/29 01:12:22;;;;;;;6.05;5.10;;;;;;;;;;4272540;33;20244;-56
2021/06/29 01:14:47;;;;;;;9.75;5.05;;;;;;;;;;4272547;33;20358;-54
2021/06/29 01:17:13;;;;;;;8.48;4.80;;;;;;;;;;4272260;33;20228;-55
2021/06/29 01:19:49;;;;;;;5.15;4.28;;;;;;;;;;4272175;33;20306;-56
2021/06/29 01:22:15;;;;;;;5.55;4.30;;;;;;;;;;4272351;33;20262;-56
2021/06/29 01:24:44;;;;;;;5.80;5.30;;;;;;;;;;4272180;33;20292;-56
2021/06/29 01:32:02;;;;;;;4.87;4.35;;;;;;;;;;4262849;33;20706;-55
2021/06/29 01:34:28;;;;;;;7.87;5.07;;;;;;;;;;4258280;33;20213;-56
2021/06/29 01:36:53;;;;;;;8.35;5.82;;;;;;;;;;4258068;33;20253;-56
2021/06/29 01:39:19;;;;;;;7.10;5.12;;;;;;;;;;4257856;33;20209;-56
2021/06/29 01:41:44;;;;;;;6.68;5.95;;;;;;;;;;4258948;33;20571;-55
2021/06/29 01:44:21;;;;;;;8.75;6.53;;;;;;;;;;4260648;33;20684;-56
2021/06/29 01:46:49;;;;;;;8.27;6.18;;;;;;;;;;4260995;33;20201;-55
2021/06/29 01:49:15;;;;;;;9.38;5.30;;;;;;;;;;4260608;33;20228;-54
2021/06/29 01:51:40;;;;;;;8.50;5.57;;;;;;;;;;4260673;33;20308;-56
2021/06/29 01:54:07;;;;;;;5.75;5.20;;;;;;;;;;4260795;33;20193;-56
2021/06/29 01:56:36;;;;;;;6.47;4.85;;;;;;;;;;4260467;33;20216;-56
2021/06/29 01:59:10;;;;;;;5.57;4.97;;;;;;;;;;4260341;33;20259;-56
2021/06/29 02:01:37;;;;;;;7.18;4.85;;;;;;;;;;4260656;33;20595;-56
2021/06/29 02:04:03;;;;;;;5.65;5.15;;;;;;;;;;4260542;33;20208;-56
2021/06/29 02:06:29;;;;;;;5.37;4.87;;;;;;;;;;4270319;33;20271;-56
2021/06/29 02:08:54;;;;;;;5.68;5.07;;;;;;;;;;4274740;33;20205;-56
2021/06/29 02:11:20;;;;;;;10.52;5.62;;;;;;;;;;4274699;33;20316;-56
2021/06/29 02:13:45;;;;;;;6.62;5.30;;;;;;;;;;4274668;33;20661;-56
2021/06/29 02:16:11;;;;;;;10.38;4.60;;;;;;;;;;4274188;33;20338;-55
2021/06/29 02:18:36;;;;;;;6.95;4.78;;;;;;;;;;4274668;33;20255;-55
2021/06/29 02:21:05;;;;;;;5.03;4.53;;;;;;;;;;4274454;33;20276;-56
2021/06/29 02:23:31;;;;;;;12.75;5.30;;;;;;;;;;4274346;33;20325;-56
2021/06/29 02:25:56;;;;;;;6.93;4.70;;;;;;;;;;4274485;33;20268;-57
2021/06/29 02:28:22;;;;;;;6.12;4.95;;;;;;;;;;4274770;33;20216;-56
2021/06/29 02:30:47;;;;;;;11.68;5.47;;;;;;;;;;4272338;33;20291;-57
2021/06/29 02:33:13;;;;;;;7.35;5.82;;;;;;;;;;4260420;33;20221;-55
2021/06/29 02:35:38;;;;;;;4.95;4.47;;;;;;;;;;4270793;33;20358;-56
2021/06/29 02:38:04;;;;;;;6.25;5.57;;;;;;;;;;4270843;33;20370;-55
2021/06/29 02:40:30;;;;;;;10.00;5.03;;;;;;;;;;4260458;33;20653;-55
2021/06/29 02:42:56;;;;;;;7.18;5.43;;;;;;;;;;4259981;33;20262;-56
2021/06/29 02:45:22;;;;;;;6.57;5.15;;;;;;;;;;4259974;33;20354;-55
2021/06/29 02:47:49;;;;;;;7.53;5.05;;;;;;;;;;4259688;33;20255;-55
2021/06/29 02:50:15;;;;;;;7.95;5.25;;;;;;;;;;4259589;33;20708;-57
2021/06/29 02:52:42;;;;;;;5.70;5.15;;;;;;;;;;4259666;33;20279;-55
2021/06/29 02:55:09;;;;;;;5.55;5.00;;;;;;;;;;4259702;33;20346;-56
2021/06/29 02:57:35;;;;;;;5.35;4.85;;;;;;;;;;4259877;33;20580;-56
2021/06/29 03:00:00;;;;;;;7.43;5.60;;;;;;;;;;4270398;33;20357;-58
2021/06/29 03:02:26;;;;;;;5.15;4.65;;;;;;;;;;4259872;33;20224;-55
2021/06/29 03:04:51;;;;;;;6.72;5.07;;;;;;;;;;4259779;33;20582;-56
2021/06/29 03:07:17;;;;;;;7.37;5.45;;;;;;;;;;4284975;33;20220;-55
2021/06/29 03:09:43;;;;;;;9.98;6.00;;;;;;;;;;4273771;33;20295;-56
2021/06/29 03:12:09;;;;;;;7.68;6.03;;;;;;;;;;4273744;33;20229;-56
2021/06/29 03:14:36;;;;;;;7.85;5.57;;;;;;;;;;4273598;33;20642;-55
2021/06/29 03:17:06;;;;;;;7.85;5.72;;;;;;;;;;4272433;33;20275;-55
2021/06/29 03:19:32;;;;;;;6.70;5.70;;;;;;;;;;4273510;33;20217;-56
2021/06/29 03:21:59;;;;;;;5.93;5.28;;;;;;;;;;4273643;33;20637;-55
2021/06/29 03:24:25;;;;;;;6.50;5.80;;;;;;;;;;4273682;33;20209;-56
2021/06/29 03:26:50;;;;;;;8.60;5.87;;;;;;;;;;4273534;33;20247;-55
2021/06/29 03:29:16;;;;;;;6.82;5.53;;;;;;;;;;4273377;33;20209;-55
2021/06/29 03:31:41;;;;;;;6.32;5.25;;;;;;;;;;4266247;33;20362;-55
2021/06/29 03:34:07;;;;;;;6.97;5.97;;;;;;;;;;4259514;33;20626;-55
2021/06/29 03:36:33;;;;;;;10.02;5.40;;;;;;;;;;4259650;33;20272;-56
2021/06/29 03:38:59;;;;;;;6.35;5.60;;;;;;;;;;4259377;33;20272;-56
2021/06/29 03:41:24;;;;;;;6.95;5.65;;;;;;;;;;4259520;33;20279;-56
2021/06/29 03:43:50;;;;;;;6.57;4.82;;;;;;;;;;4257633;33;20561;-56
2021/06/29 03:46:15;;;;;;;5.72;5.12;;;;;;;;;;4259439;33;20280;-56
2021/06/29 03:48:41;;;;;;;6.30;5.55;;;;;;;;;;4259283;33;20621;-55
2021/06/29 03:51:06;;;;;;;6.05;5.18;;;;;;;;;;4259131;33;20707;-55
2021/06/29 03:53:32;;;;;;;6.55;5.32;;;;;;;;;;4259372;33;20300;-55
2021/06/29 03:55:57;;;;;;;5.53;4.97;;;;;;;;;;4259598;33;20304;-56
2021/06/29 03:58:23;;;;;;;7.68;5.82;;;;;;;;;;4259343;33;20244;-56
2021/06/29 04:00:48;;;;;;;14.98;5.47;;;;;;;;;;4259275;33;20291;-56
2021/06/29 04:03:14;;;;;;;10.82;6.30;;;;;;;;;;4258690;33;20225;-56
2021/06/29 04:05:39;;;;;;;9.15;5.55;;;;;;;;;;4264221;33;20295;-57
2021/06/29 04:08:05;;;;;;;8.63;5.82;;;;;;;;;;4272993;33;20243;-56
2021/06/29 04:10:32;;;;;;;10.07;5.37;;;;;;;;;;4273178;33;20295;-56
2021/06/29 04:12:57;;;;;;;5.78;5.22;;;;;;;;;;4273400;33;20303;-56
2021/06/29 04:15:23;;;;;;;10.48;6.25;;;;;;;;;;4284098;33;20708;-56
2021/06/29 04:17:49;;;;;;;7.28;5.70;;;;;;;;;;4273022;33;20240;-56
2021/06/29 04:20:14;;;;;;;8.15;6.20;;;;;;;;;;4273221;33;20980;-57
2021/06/29 04:22:40;;;;;;;7.70;6.35;;;;;;;;;;4273096;33;20252;-56
2021/06/29 04:25:07;;;;;;;7.62;5.90;;;;;;;;;;4273296;33;20708;-56
2021/06/29 04:27:33;;;;;;;9.05;5.78;;;;;;;;;;4273041;33;20224;-56
2021/06/29 04:29:58;;;;;;;9.25;5.53;;;;;;;;;;4273003;33;20301;-57
2021/06/29 04:32:24;;;;;;;8.38;6.20;;;;;;;;;;4261236;33;20289;-57
2021/06/29 04:34:49;;;;;;;7.03;6.32;;;;;;;;;;4258755;33;20334;-57
2021/06/29 04:37:16;;;;;;;9.45;7.05;;;;;;;;;;4257649;33;20228;-56
2021/06/29 04:39:43;;;;;;;8.35;5.50;;;;;;;;;;4269268;33;20313;-57
2021/06/29 04:42:08;;;;;;;8.02;5.50;;;;;;;;;;4258621;33;20328;-57
2021/06/29 04:44:38;;;;;;;6.10;5.45;;;;;;;;;;4258295;33;20288;-56
2021/06/29 04:47:07;;;;;;;7.30;6.57;;;;;;;;;;4258720;33;20255;-60
2021/06/29 04:49:33;;;;;;;9.25;5.70;;;;;;;;;;4259040;33;20238;-56
2021/06/29 04:51:58;;;;;;;10.23;6.28;;;;;;;;;;4258523;33;20221;-56
2021/06/29 04:54:24;;;;;;;10.68;7.32;;;;;;;;;;4258519;33;20280;-56
2021/06/29 04:56:50;;;;;;;10.90;6.60;;;;;;;;;;4258636;33;20237;-56
2021/06/29 04:59:16;;;;;;;8.57;6.90;;;;;;;;;;4268748;33;20276;-58
2021/06/29 05:01:42;;;;;;;12.50;6.57;;;;;;;;;;4258268;33;20294;-55
2021/06/29 05:04:07;;;;;;;11.60;7.15;;;;;;;;;;4258050;33;20233;-56
2021/06/29 05:06:33;;;;;;;9.57;8.07;;;;;;;;;;4268111;33;20280;-55
2021/06/29 05:08:59;;;;;;;9.57;7.40;;;;;;;;;;4270984;33;20208;-56
2021/06/29 05:11:24;;;;;;;8.50;7.15;;;;;;;;;;4272201;33;20267;-57
2021/06/29 05:13:50;;;;;;;8.68;6.78;;;;;;;;;;4271665;33;20334;-55
2021/06/29 05:16:15;;;;;;;12.90;7.22;;;;;;;;;;4272134;33;20303;-56
2021/06/29 05:18:41;;;;;;;9.85;6.95;;;;;;;;;;4272372;33;20526;-55
2021/06/29 05:21:06;;;;;;;8.98;6.87;;;;;;;;;;4272129;33;20279;-55
2021/06/29 05:23:32;;;;;;;7.53;6.70;;;;;;;;;;4269872;33;20236;-55
2021/06/29 05:25:57;;;;;;;7.18;6.47;;;;;;;;;;4270328;33;20284;-54
2021/06/29 05:28:24;;;;;;;9.40;7.00;;;;;;;;;;4270122;33;20232;-55
2021/06/29 05:30:50;;;;;;;9.48;7.25;;;;;;;;;;4268191;33;20350;-55
2021/06/29 05:33:16;;;;;;;10.70;6.65;;;;;;;;;;4254654;33;20573;-55
2021/06/29 05:35:41;;;;;;;7.03;6.43;;;;;;;;;;4257218;33;20322;-57
2021/06/29 05:38:07;;;;;;;8.23;6.72;;;;;;;;;;4257932;33;20232;-56
2021/06/29 05:40:34;;;;;;;8.18;6.57;;;;;;;;;;4256656;33;20346;-56
2021/06/29 05:42:59;;;;;;;7.25;6.35;;;;;;;;;;4257898;33;20788;-57
2021/06/29 05:45:25;;;;;;;9.30;6.68;;;;;;;;;;4257932;33;20213;-56
2021/06/29 05:47:51;;;;;;;8.25;7.05;;;;;;;;;;4257694;33;20345;-54
2021/06/29 05:50:17;;;;;;;8.30;6.60;;;;;;;;;;4257743;33;20344;-55
2021/06/29 05:52:45;;;;;;;7.15;6.45;;;;;;;;;;4257383;33;20312;-57
2021/06/29 05:55:12;;;;;;;7.28;6.53;;;;;;;;;;4268372;33;20321;-55
2021/06/29 05:57:38;;;;;;;10.93;6.82;;;;;;;;;;4256277;33;20233;-56
2021/06/29 06:00:16;;;;;;;8.07;6.03;;;;;;;;;;4256771;33;20299;-55
2021/06/29 06:02:42;;;;;;;12.80;6.20;;;;;;;;;;4257604;33;20228;-56
2021/06/29 06:05:09;;;;;;;8.00;6.70;;;;;;;;;;4259210;33;20290;-57
2021/06/29 06:07:36;;;;;;;7.07;6.30;;;;;;;;;;4271400;33;20275;-54
2021/06/29 06:10:04;;;;;;;12.32;7.35;;;;;;;;;;4271015;33;20208;-57
2021/06/29 06:12:29;;;;;;;10.15;6.18;;;;;;;;;;4271168;33;20247;-56
2021/06/29 06:14:55;;;;;;;10.25;5.68;;;;;;;;;;4282350;33;20299;-57
2021/06/29 06:17:21;;;;;;;8.27;6.43;;;;;;;;;;4271332;33;20266;-56
2021/06/29 06:19:47;;;;;;;7.45;6.65;;;;;;;;;;4271458;33;20284;-56
2021/06/29 06:22:12;;;;;;;9.32;6.95;;;;;;;;;;4271192;33;20244;-55
2021/06/29 06:24:38;;;;;;;6.07;5.53;;;;;;;;;;4271138;33;20310;-55
2021/06/29 06:27:04;;;;;;;7.25;6.50;;;;;;;;;;4273167;33;20224;-55
2021/06/29 06:29:29;;;;;;;6.90;5.90;;;;;;;;;;4273736;33;20262;-55
2021/06/29 06:31:55;;;;;;;7.47;6.10;;;;;;;;;;4265494;33;20621;-54
2021/06/29 06:34:20;;;;;;;7.97;6.47;;;;;;;;;;4259868;33;20308;-56
2021/06/29 06:36:47;;;;;;;6.70;5.97;;;;;;;;;;4270256;33;20342;-55
2021/06/29 06:39:13;;;;;;;9.75;6.30;;;;;;;;;;4259488;33;20276;-55
2021/06/29 06:41:38;;;;;;;7.07;6.35;;;;;;;;;;4259808;33;20719;-56
2021/06/29 06:44:04;;;;;;;7.07;6.43;;;;;;;;;;4259618;33;20228;-55
2021/06/29 06:46:29;;;;;;;6.90;6.18;;;;;;;;;;4259609;33;20626;-55
2021/06/29 06:48:55;;;;;;;12.48;7.12;;;;;;;;;;4259688;33;20201;-55
2021/06/29 06:51:21;;;;;;;7.50;6.32;;;;;;;;;;4270184;33;20410;-58
2021/06/29 06:53:46;;;;;;;8.85;7.28;;;;;;;;;;4259289;33;20244;-56
2021/06/29 06:56:15;;;;;;;7.20;5.87;;;;;;;;;;4259786;33;20314;-55
2021/06/29 06:58:42;;;;;;;9.20;7.50;;;;;;;;;;4258961;33;20676;-56
2021/06/29 07:01:09;;;;;;;9.32;5.75;;;;;;;;;;4258376;33;20244;-56
2021/06/29 07:03:36;;;;;;;9.32;6.90;;;;;;;;;;4259394;33;20221;-55
2021/06/29 07:06:01;;;;;;;7.68;6.05;;;;;;;;;;4266405;33;20271;-56
2021/06/29 07:08:27;;;;;;;9.20;6.75;;;;;;;;;;4273567;33;20562;-54
2021/06/29 07:10:55;;;;;;;7.37;6.30;;;;;;;;;;4272394;33;20672;-55
2021/06/29 07:13:21;;;;;;;8.13;7.32;;;;;;;;;;4284340;33;20323;-56
2021/06/29 07:15:46;;;;;;;8.40;7.07;;;;;;;;;;4273930;33;20330;-56
2021/06/29 07:18:16;;;;;;;9.55;8.10;;;;;;;;;;4273817;33;20243;-55
2021/06/29 07:20:43;;;;;;;8.75;7.20;;;;;;;;;;4272378;33;20251;-54
2021/06/29 07:23:10;;;;;;;7.10;6.25;;;;;;;;;;4284172;33;20232;-54
2021/06/29 07:25:35;;;;;;;7.60;6.82;;;;;;;;;;4273757;33;20207;-55
2021/06/29 07:28:02;;;;;;;11.07;6.70;;;;;;;;;;4273465;33;20247;-55
2021/06/29 07:30:27;;;;;;;8.40;6.93;;;;;;;;;;4284390;33;20295;-56
2021/06/29 07:32:54;;;;;;;8.13;6.80;;;;;;;;;;4259458;33;20695;-55
2021/06/29 07:35:21;;;;;;;9.52;6.62;;;;;;;;;;4259431;33;20204;-55
2021/06/29 07:37:46;;;;;;;10.07;6.90;;;;;;;;;;4259402;33;20263;-56
2021/06/29 07:40:11;;;;;;;8.70;7.15;;;;;;;;;;4259982;33;20280;-55
2021/06/29 07:42:37;;;;;;;8.00;6.95;;;;;;;;;;4259066;33;20340;-56
2021/06/29 07:45:04;;;;;;;11.82;6.62;;;;;;;;;;4259387;33;20219;-56
2021/06/29 07:47:30;;;;;;;10.60;6.07;;;;;;;;;;4257771;33;20351;-55
2021/06/29 07:49:56;;;;;;;9.07;6.72;;;;;;;;;;4258844;33;20268;-56
2021/06/29 07:52:21;;;;;;;7.05;6.35;;;;;;;;;;4269584;33;20267;-55
2021/06/29 07:54:47;;;;;;;7.80;6.12;;;;;;;;;;4258969;33;20697;-55
2021/06/29 07:57:12;;;;;;;7.87;6.25;;;;;;;;;;4258534;33;20216;-56
2021/06/29 07:59:38;;;;;;;8.40;7.05;;;;;;;;;;4258449;33;20306;-55
2021/06/29 08:02:03;;;;;;;9.15;6.72;;;;;;;;;;4258675;33;20292;-56
2021/06/29 08:04:28;;;;;;;7.45;6.20;;;;;;;;;;4258435;33;20208;-56
2021/06/29 08:06:54;;;;;;;8.35;6.57;;;;;;;;;;4271341;33;20286;-56
2021/06/29 08:09:19;;;;;;;7.15;6.35;;;;;;;;;;4272922;33;20243;-56
2021/06/29 08:11:45;;;;;;;6.75;6.00;;;;;;;;;;4272655;33;20267;-56
2021/06/29 08:14:10;;;;;;;7.30;6.12;;;;;;;;;;4272184;33;20326;-56
2021/06/29 08:16:36;;;;;;;6.97;5.43;;;;;;;;;;4271101;33;20316;-56
2021/06/29 08:19:01;;;;;;;7.00;6.30;;;;;;;;;;4272283;33;20200;-56
2021/06/29 08:21:27;;;;;;;9.02;6.62;;;;;;;;;;4265420;33;20310;-56
2021/06/29 08:23:52;;;;;;;7.18;5.72;;;;;;;;;;4258380;33;20208;-56
2021/06/29 08:26:18;;;;;;;6.68;5.87;;;;;;;;;;4258357;33;20302;-56
2021/06/29 08:28:44;;;;;;;7.93;6.57;;;;;;;;;;4258557;33;20220;-56
2021/06/29 08:31:09;;;;;;;7.50;5.75;;;;;;;;;;4261282;33;20292;-55
2021/06/29 08:33:35;;;;;;;8.60;5.95;;;;;;;;;;4257163;33;20250;-57
2021/06/29 08:36:00;;;;;;;7.85;6.55;;;;;;;;;;4258530;33;20759;-56
2021/06/29 08:38:26;;;;;;;8.95;6.25;;;;;;;;;;4258037;33;20312;-56
2021/06/29 08:40:51;;;;;;;7.95;6.30;;;;;;;;;;4258387;33;20351;-57
2021/06/29 08:43:17;;;;;;;8.27;6.05;;;;;;;;;;4258178;33;20224;-57
2021/06/29 08:45:44;;;;;;;7.05;5.40;;;;;;;;;;4258527;33;20334;-57
2021/06/29 08:48:11;;;;;;;6.47;5.87;;;;;;;;;;4257943;33;20251;-56
2021/06/29 08:50:39;;;;;;;6.40;5.80;;;;;;;;;;4257528;33;20239;-56
2021/06/29 08:53:08;;;;;;;6.40;5.80;;;;;;;;;;4257910;33;20292;-56
2021/06/29 08:55:52;;;;;;;7.10;5.55;;;;;;;;;;4257876;33;20535;-56
2021/06/29 08:58:19;;;;;;;10.43;6.87;;;;;;;;;;4257346;33;20580;-56
2021/06/29 09:00:52;;;;;;;6.75;5.37;;;;;;;;;;4257730;33;20310;-57
2021/06/29 09:03:18;;;;;;;8.52;7.57;;;;;;;;;;4257599;33;20283;-57
2021/06/29 09:05:49;;;;;;;6.00;5.25;;;;;;;;;;4263157;33;20347;-56
2021/06/29 09:08:17;;;;;;;9.45;6.22;;;;;;;;;;4282588;33;20237;-57
2021/06/29 09:11:04;;;;;;;11.75;7.55;;;;;;;;;;4271676;33;20587;-56
2021/06/29 09:13:30;;;;;;;6.20;5.43;;;;;;;;;;4271347;33;20278;-57
2021/06/29 09:15:56;;;;;;;8.93;6.05;;;;;;;;;;4271990;33;20299;-58
2021/06/29 09:18:28;;;;;;;11.07;6.40;;;;;;;;;;4272109;33;20221;-57
2021/06/29 09:20:58;;;;;;;5.53;5.05;;;;;;;;;;4272144;33;20269;-56
2021/06/29 09:23:28;;;;;;;6.60;5.90;;;;;;;;;;4271621;33;20283;-57
2021/06/29 09:25:58;;;;;;;6.37;5.70;;;;;;;;;;4272047;33;20543;-56
2021/06/29 09:28:30;;;;;;;7.97;6.50;;;;;;;;;;4272301;33;20251;-57
2021/06/29 09:30:58;;;;;;;8.50;6.37;;;;;;;;;;4269167;33;20225;-57
2021/06/29 09:33:36;;;;;;;9.82;6.20;;;;;;;;;;4257744;33;20244;-57
2021/06/29 09:36:23;;;;;;;7.82;5.65;;;;;;;;;;4267135;33;20201;-55
2021/06/29 09:38:50;;;;;;;8.57;6.32;;;;;;;;;;4256277;33;20692;-57
2021/06/29 09:41:22;;;;;;;7.15;5.72;;;;;;;;;;4257372;33;20272;-57
2021/06/29 09:43:51;;;;;;;6.03;5.43;;;;;;;;;;4257371;33;20395;-56
2021/06/29 09:46:19;;;;;;;10.63;5.85;;;;;;;;;;4257562;33;20238;-57
2021/06/29 09:48:46;;;;;;;7.65;6.12;;;;;;;;;;4257757;33;20251;-56
2021/06/29 09:51:19;;;;;;;7.93;5.70;;;;;;;;;;4257629;33;20221;-56
2021/06/29 09:53:47;;;;;;;6.37;5.60;;;;;;;;;;4257579;33;20237;-57
2021/06/29 09:56:16;;;;;;;7.55;6.07;;;;;;;;;;4256302;33;20286;-56
2021/06/29 09:58:45;;;;;;;6.28;5.68;;;;;;;;;;4257332;33;20338;-57
2021/06/29 10:01:12;;;;;;;7.12;6.00;;;;;;;;;;4258459;33;20303;-57
2021/06/29 10:03:39;;;;;;;6.43;5.68;;;;;;;;;;4260495;33;20224;-57
2021/06/29 10:06:17;;;;;;;10.10;5.70;;;;;;;;;;4267663;33;20213;-57
2021/06/29 10:09:06;;;;;;;5.97;4.95;;;;;;;;;;4274698;33;20216;-57
2021/06/29 10:11:37;;;;;;;7.10;5.50;;;;;;;;;;4274222;33;20251;-57
2021/06/29 10:14:14;;;;;;;5.53;5.03;;;;;;;;;;4274351;33;20234;-57
2021/06/29 10:16:49;;;;;;;10.23;5.53;;;;;;;;;;4274302;33;20230;-56
2021/06/29 10:21:42;;;;;;;7.18;6.28;;;;;;;;;;4274190;33;20226;-57
2021/06/29 10:24:10;;;;;;;7.57;6.47;;;;;;;;;;4274199;33;20227;-57
2021/06/29 10:26:39;;;;;;;7.43;6.55;;;;;;;;;;4273788;33;20220;-57
2021/06/29 10:29:08;;;;;;;6.65;5.70;;;;;;;;;;4273939;33;20299;-56
2021/06/29 10:31:36;;;;;;;7.03;6.32;;;;;;;;;;4267612;33;20217;-56
2021/06/29 10:34:07;;;;;;;8.55;6.22;;;;;;;;;;4259974;33;20204;-56
2021/06/29 10:36:34;;;;;;;6.45;5.85;;;;;;;;;;4259663;33;20237;-57
2021/06/29 10:39:00;;;;;;;8.45;6.87;;;;;;;;;;4259542;33;20311;-57
2021/06/29 10:41:32;;;;;;;7.47;6.53;;;;;;;;;;4259614;33;20311;-57
2021/06/29 10:43:59;;;;;;;10.98;5.53;;;;;;;;;;4270226;33;20244;-56
2021/06/29 10:46:28;;;;;;;8.77;6.72;;;;;;;;;;4258502;33;20249;-56
2021/06/29 10:48:54;;;;;;;7.70;6.10;;;;;;;;;;4259461;33;20241;-57
2021/06/29 10:51:36;;;;;;;8.70;5.55;;;;;;;;;;4260165;33;20197;-56
2021/06/29 10:54:02;;;;;;;6.82;5.53;;;;;;;;;;4259669;33;20212;-57
2021/06/29 10:56:56;;;;;;;6.40;5.35;;;;;;;;;;4259207;33;20295;-58
2021/06/29 10:59:32;;;;;;;5.82;5.07;;;;;;;;;;4257985;33;20273;-57
2021/06/29 11:01:58;;;;;;;6.37;5.10;;;;;;;;;;4259692;33;20642;-56
2021/06/29 11:04:47;;;;;;;6.47;4.70;;;;;;;;;;4259534;33;20212;-57
2021/06/29 11:07:30;;;;;;;6.30;5.65;;;;;;;;;;4272867;33;20255;-57
2021/06/29 11:10:09;;;;;;;10.20;5.53;;;;;;;;;;4273273;33;20272;-57
2021/06/29 11:12:39;;;;;;;6.35;5.68;;;;;;;;;;4271874;33;20236;-57
2021/06/29 11:15:07;;;;;;;9.05;4.85;;;;;;;;;;4272987;33;20208;-56
2021/06/29 11:17:49;;;;;;;6.80;6.00;;;;;;;;;;4273149;33;20577;-56
2021/06/29 11:20:18;;;;;;;7.07;5.22;;;;;;;;;;4273233;33;20262;-56
2021/06/29 11:22:56;;;;;;;5.80;4.90;;;;;;;;;;4272970;33;20228;-57
2021/06/29 11:25:33;;;;;;;5.97;4.80;;;;;;;;;;4272005;33;20329;-57
2021/06/29 11:28:21;;;;;;;7.78;6.18;;;;;;;;;;4272989;33;20262;-56
2021/06/29 11:30:50;;;;;;;6.85;5.57;;;;;;;;;;4271058;33;20733;-57
2021/06/29 11:33:40;;;;;;;7.82;5.03;;;;;;;;;;4259264;33;20319;-56
2021/06/29 11:36:07;;;;;;;10.13;5.55;;;;;;;;;;4257775;33;20236;-56
2021/06/29 11:38:41;;;;;;;7.90;5.50;;;;;;;;;;4259009;33;20652;-56
2021/06/29 11:41:24;;;;;;;8.07;5.50;;;;;;;;;;4259257;33;20734;-57
2021/06/29 11:43:54;;;;;;;8.27;5.53;;;;;;;;;;4258740;33;20300;-56
2021/06/29 11:46:55;;;;;;;6.05;5.45;;;;;;;;;;4258953;33;20625;-57
2021/06/29 11:49:38;;;;;;;8.20;5.12;;;;;;;;;;4258218;33;20299;-57
2021/06/29 11:52:18;;;;;;;6.72;5.05;;;;;;;;;;4258618;33;20380;-57
2021/06/29 11:54:57;;;;;;;6.25;4.75;;;;;;;;;;4259142;33;20259;-56
2021/06/29 11:57:43;;;;;;;5.00;4.32;;;;;;;;;;4268936;33;20228;-58
2021/06/29 12:00:33;;;;;;;7.22;4.45;;;;;;;;;;4257602;33;20254;-56
2021/06/29 12:03:03;;;;;;;7.68;5.82;;;;;;;;;;4258283;33;20216;-57
2021/06/29 12:05:32;;;;;;;7.43;5.32;;;;;;;;;;4261897;33;20676;-57
2021/06/29 12:08:02;;;;;;;7.82;4.72;;;;;;;;;;4272325;33;20735;-59
2021/06/29 12:10:32;;;;;;;8.43;4.93;;;;;;;;;;4272520;33;20212;-55
2021/06/29 12:13:03;;;;;;;7.03;5.50;;;;;;;;;;4272527;33;20228;-57
2021/06/29 12:15:35;;;;;;;7.50;5.22;;;;;;;;;;4272535;33;20226;-55
2021/06/29 12:18:14;;;;;;;9.93;5.50;;;;;;;;;;4272734;33;20321;-56
2021/06/29 12:21:11;;;;;;;6.93;4.78;;;;;;;;;;4272692;33;20212;-57
2021/06/29 12:23:38;;;;;;;10.40;5.35;;;;;;;;;;4270989;33;20709;-57
2021/06/29 12:26:06;;;;;;;5.47;4.97;;;;;;;;;;4272615;33;20217;-56
2021/06/29 12:28:36;;;;;;;9.65;4.82;;;;;;;;;;4272499;33;20248;-57
2021/06/29 12:31:03;;;;;;;7.43;4.70;;;;;;;;;;4269251;33;20585;-57
2021/06/29 12:33:37;;;;;;;4.82;4.35;;;;;;;;;;4258319;33;20263;-57
2021/06/29 12:36:14;;;;;;;5.43;4.45;;;;;;;;;;4258163;33;20284;-56
2021/06/29 12:38:59;;;;;;;8.80;5.40;;;;;;;;;;4258385;33;20220;-57
2021/06/29 12:41:30;;;;;;;12.50;4.50;;;;;;;;;;4257932;33;20295;-57
2021/06/29 12:44:02;;;;;;;7.25;4.97;;;;;;;;;;4257915;33;20288;-58
2021/06/29 12:46:27;;;;;;;6.05;4.72;;;;;;;;;;4257974;33;20212;-59
2021/06/29 12:49:14;;;;;;;5.18;4.10;;;;;;;;;;4258155;33;20235;-57
2021/06/29 12:51:49;;;;;;;6.72;5.07;;;;;;;;;;4258018;33;20346;-57
2021/06/29 12:54:17;;;;;;;6.70;5.00;;;;;;;;;;4258239;33;20246;-58
2021/06/29 12:56:43;;;;;;;5.95;5.32;;;;;;;;;;4268377;33;20232;-57
2021/06/29 12:59:10;;;;;;;9.68;4.05;;;;;;;;;;4258004;33;20291;-58
2021/06/29 13:01:45;;;;;;;9.18;5.15;;;;;;;;;;4258407;33;20485;-58
2021/06/29 13:04:13;;;;;;;6.55;4.62;;;;;;;;;;4257978;33;20280;-58
2021/06/29 13:06:41;;;;;;;6.62;4.10;;;;;;;;;;4268534;33;20582;-57
2021/06/29 13:09:18;;;;;;;11.73;5.57;;;;;;;;;;4272243;33;20204;-58
2021/06/29 13:11:57;;;;;;;8.55;4.97;;;;;;;;;;4271921;33;20204;-57
2021/06/29 13:14:23;;;;;;;9.55;4.82;;;;;;;;;;4272113;33;20340;-59
2021/06/29 13:17:00;;;;;;;6.50;4.35;;;;;;;;;;4272019;33;20683;-58
2021/06/29 13:19:25;;;;;;;5.97;4.50;;;;;;;;;;4272543;33;20220;-58
2021/06/29 13:22:00;;;;;;;4.93;4.45;;;;;;;;;;4271814;33;20248;-59
2021/06/29 13:24:37;;;;;;;6.35;4.30;;;;;;;;;;4271699;33;20216;-58
2021/06/29 13:27:04;;;;;;;4.85;4.22;;;;;;;;;;4271980;33;20298;-57
2021/06/29 13:29:33;;;;;;;6.97;5.05;;;;;;;;;;4271307;33;20649;-58
2021/06/29 13:32:00;;;;;;;7.10;5.78;;;;;;;;;;4262633;33;20229;-57
2021/06/29 13:34:28;;;;;;;4.60;2.60;;;;;;;;;;4257916;33;20276;-58
2021/06/29 13:36:54;;;;;;;4.45;2.35;;;;;;;;;;4262774;33;20259;-57
2021/06/29 13:39:25;;;;;;;4.37;1.62;;;;;;;;;;4262716;33;20572;-58
2021/06/29 13:41:51;;;;;;;4.43;1.98;;;;;;;;;;4262678;33;20629;-58
2021/06/29 13:44:17;;;;;;;7.15;2.53;;;;;;;;;;4262389;33;20246;-58
2021/06/29 13:46:44;;;;;;;7.15;2.67;;;;;;;;;;4262538;33;20411;-57
2021/06/29 13:49:21;;;;;;;8.70;2.95;;;;;;;;;;4262304;33;20560;-58
2021/06/29 13:51:47;;;;;;;7.00;3.03;;;;;;;;;;4262086;33;20571;-58
2021/06/29 13:54:17;;;;;;;4.68;2.42;;;;;;;;;;4262574;33;20304;-57
2021/06/29 13:56:43;;;;;;;8.77;2.78;;;;;;;;;;4262372;33;20235;-58
2021/06/29 13:59:09;;;;;;;9.48;3.17;;;;;;;;;;4262081;33;20248;-57
2021/06/29 14:01:34;;;;;;;5.87;3.15;;;;;;;;;;4262087;33;20291;-57
2021/06/29 14:04:01;;;;;;;12.57;4.93;;;;;;;;;;4262181;33;20373;-57
2021/06/29 14:06:26;;;;;;;9.20;3.15;;;;;;;;;;4271088;33;20221;-57
2021/06/29 14:09:05;;;;;;;6.35;3.37;;;;;;;;;;4275641;33;20315;-57
2021/06/29 14:11:36;;;;;;;5.93;3.12;;;;;;;;;;4276390;33;20309;-58
2021/06/29 14:14:02;;;;;;;15.52;4.03;;;;;;;;;;4286915;33;20224;-58
2021/06/29 14:16:28;;;;;;;8.32;3.35;;;;;;;;;;4276993;33;20819;-58
2021/06/29 14:18:54;;;;;;;9.75;3.67;;;;;;;;;;4276401;33;20204;-57
2021/06/29 14:21:33;;;;;;;5.90;3.65;;;;;;;;;;4276624;33;20550;-58
2021/06/29 14:24:04;;;;;;;9.70;3.80;;;;;;;;;;4276955;33;20685;-59
2021/06/29 14:26:31;;;;;;;6.60;3.62;;;;;;;;;;4275907;33;20224;-58
2021/06/29 14:28:58;;;;;;;10.95;3.95;;;;;;;;;;4276309;33;20236;-57
2021/06/29 14:31:23;;;;;;;8.30;3.72;;;;;;;;;;4271250;33;20224;-57
2021/06/29 14:33:49;;;;;;;8.57;3.85;;;;;;;;;;4262349;33;20736;-57
2021/06/29 14:36:18;;;;;;;8.23;4.15;;;;;;;;;;4260431;33;20646;-57
2021/06/29 14:38:47;;;;;;;9.27;4.35;;;;;;;;;;4261567;33;20291;-57
2021/06/29 14:41:13;;;;;;;9.80;4.05;;;;;;;;;;4261368;33;20284;-58
2021/06/29 14:43:39;;;;;;;9.77;4.10;;;;;;;;;;4261688;33;20311;-57
2021/06/29 14:46:06;;;;;;;9.25;3.30;;;;;;;;;;4261173;33;20229;-58
2021/06/29 14:48:32;;;;;;;10.32;3.80;;;;;;;;;;4259098;33;20263;-57
2021/06/29 14:50:58;;;;;;;11.85;4.10;;;;;;;;;;4258560;33;20292;-57
2021/06/29 14:53:23;;;;;;;8.35;3.78;;;;;;;;;;4259473;33;20220;-57
2021/06/29 14:55:49;;;;;;;11.07;3.60;;;;;;;;;;4259507;33;20709;-58